Makoti, ND (58756)

7:55 AM CDT on July 30, 2015 (GMT -0500)
Minot International | | Change Station
CLOSE
Current Station
Airport
Location: Minot,
Elevation: 1716 ft
Nearby Weather Stations

Elev 1716 ft 48.26 °N, 101.28 °W | Updated 1 hour ago

Partly Cloudy
Partly Cloudy
60 °F
Feels Like 60 °F
N
9
Wind Variable Wind from SW

Today
High -- | Low -- °F
--% Chance of Precip.
Yesterday
High -- | Low -- °F
Precip. -- in
6:20 AM 9:26 PM
Waxing Gibbous, 99% visible
Pressure 30.06 in
Visibility 10.0 miles
Clouds Few 6500 ft
Mostly Cloudy 8500 ft
Overcast 11000 ft
Dew Point 53 °F
Humidity 78%
Rainfall 0.00 in
Snow Depth Not available.
UV 0 out of 12
Pollen 7.40 out of 12
Air Quality Not available.
Flu Activity Not available.
METAR KMOT 301154Z 23008KT 10SM FEW065 BKN085 OVC110 16/12 A3007 RMK AO2 SLP180 60000 T01560117 10172 20150 51003

More Conditions Fewer Conditions

Pressure 30.06 in
Visibility 10.0 miles
Clouds Few 6500 ft
Mostly Cloudy 8500 ft
Overcast 11000 ft
Dew Point 53 °F
Humidity 78%
Rainfall 0.00 in
Snow Depth Not available.
UV 0 out of 12
Pollen 7.40 out of 12
Air Quality Not available.
Flu Activity Not available.
METAR KMOT 301154Z 23008KT 10SM FEW065 BKN085 OVC110 16/12 A3007 RMK AO2 SLP180 60000 T01560117 10172 20150 51003

More Conditions Fewer Conditions

10-Day Weather Forecast

×

Almanac

Astronomy

Jul. 30, 2015 Rise Set
Actual Time
Civil Twilight
Nautical Twilight
Astronomical Twilight
Moon
Length of Visible Light
Length of Day
Tomorrow will be .
, % of the Moon is Illuminated

Today's Extremes

State Highs State Lows

Community

WunderPhotos

Upload Photos

1,842,345 photos uploaded!

WunderBlogs® & News

Nearby

Air Quality

  Air Quality AQ Index Pollutant
Not available.

Snow Depth

Station Depth Elevation

Earthquake Activity

City Distance Mag. Time & Date
Minimum magnitude displayed is 2.5.

Coastal Water Temperatures

Place Temperature

Stations

Nearby Weather Stations

Station Location Temp. Windchill Dew Point Humidity Wind Precip. Elev Updated Type